Time;durP1;ratioP1;P1;durP2;ratioP2;P2;SDS_P1;SDS_P2;PMS_P1;PMS_P2;Temp;Humidity;BMP_temperature;BMP_pressure;BME280_temperature;BME280_humidity;BME280_pressure;Samples;Min_cycle;Max_cycle;Signal;HPM_P1;HPM_P2
2024/01/07 00:00:23;;;;;;;4.40;2.07;;;;;;;3.86;100.00;100146.75;4960285;28;20236;-75
2024/01/07 00:02:50;;;;;;;6.40;2.40;;;;;;;3.83;100.00;100147.53;4957798;28;20682;-75
2024/01/07 00:05:16;;;;;;;3.70;1.80;;;;;;;3.87;100.00;100149.41;4956380;28;20212;-75
2024/01/07 00:07:43;;;;;;;6.27;2.20;;;;;;;3.89;100.00;100158.22;4959619;28;20263;-75
2024/01/07 00:10:09;;;;;;;4.27;2.07;;;;;;;3.88;100.00;100147.69;4960959;28;20231;-75
2024/01/07 00:12:36;;;;;;;4.40;2.50;;;;;;;3.85;100.00;100148.47;4960679;28;20639;-75
2024/01/07 00:15:03;;;;;;;4.73;2.47;;;;;;;3.90;100.00;100157.38;4960735;28;20202;-75
2024/01/07 00:17:29;;;;;;;6.53;3.23;;;;;;;3.90;100.00;100148.63;4959692;28;20202;-75
2024/01/07 00:19:56;;;;;;;5.23;2.60;;;;;;;3.90;100.00;100157.38;4960120;28;20293;-75
2024/01/07 00:22:22;;;;;;;6.03;2.43;;;;;;;3.94;100.00;100154.03;4961068;28;20209;-75
2024/01/07 00:24:48;;;;;;;4.43;2.63;;;;;;;3.93;100.00;100154.88;4961023;28;20201;-75
2024/01/07 00:27:15;;;;;;;3.60;2.20;;;;;;;3.93;100.00;100154.88;4955469;28;20230;-75
2024/01/07 00:29:41;;;;;;;5.97;2.37;;;;;;;3.99;100.00;100154.19;4958944;28;20296;-75
2024/01/07 00:32:08;;;;;;;5.63;2.90;;;;;;;4.00;100.00;100158.59;4957602;28;20602;-75
2024/01/07 00:34:34;;;;;;;5.20;2.77;;;;;;;4.00;100.00;100153.34;4959091;28;20551;-75
2024/01/07 00:37:01;;;;;;;4.77;2.63;;;;;;;3.98;100.00;100153.31;4960197;28;20223;-75
2024/01/07 00:39:27;;;;;;;5.13;2.53;;;;;;;3.97;100.00;100156.75;4960394;28;20217;-74
2024/01/07 00:41:54;;;;;;;4.80;2.53;;;;;;;3.93;100.00;100157.47;4961258;28;20565;-75
2024/01/07 00:44:20;;;;;;;6.07;3.00;;;;;;;3.96;100.00;100156.69;4956165;28;20279;-75
2024/01/07 00:46:47;;;;;;;5.03;2.03;;;;;;;3.96;100.00;100168.06;4959571;28;20229;-75
2024/01/07 00:49:14;;;;;;;6.20;2.53;;;;;;;3.94;100.00;100163.63;4959737;28;20744;-74
2024/01/07 00:51:41;;;;;;;5.77;2.57;;;;;;;3.94;100.00;100168.84;4973873;28;20212;-75
2024/01/07 00:54:08;;;;;;;6.53;2.70;;;;;;;3.93;100.00;100172.31;4958348;28;20268;-75
2024/01/07 00:56:34;;;;;;;5.20;2.70;;;;;;;3.90;100.00;100173.09;4959923;28;20199;-74
2024/01/07 00:59:04;;;;;;;5.87;3.33;;;;;;;3.91;100.00;100169.63;4963021;28;20230;-75
2024/01/07 01:01:31;;;;;;;6.07;3.00;;;;;;;3.89;100.00;100170.41;4955713;28;20204;-75
2024/01/07 01:03:57;;;;;;;5.27;3.07;;;;;;;3.94;100.00;100176.72;4961977;28;20228;-75
2024/01/07 01:06:24;;;;;;;5.07;2.77;;;;;;;3.94;100.00;100174.97;4959044;28;20289;-75
2024/01/07 01:08:51;;;;;;;7.03;2.90;;;;;;;3.97;100.00;100179.44;4964225;28;20231;-74
2024/01/07 01:11:17;;;;;;;5.47;2.80;;;;;;;3.93;100.00;100182.78;4962878;28;20581;-75
2024/01/07 01:13:43;;;;;;;6.30;3.17;;;;;;;4.05;100.00;100189.38;4961107;28;20332;-75
2024/01/07 01:16:10;;;;;;;4.97;2.80;;;;;;;3.99;100.00;100185.63;4964817;28;20198;-75
2024/01/07 01:18:36;;;;;;;6.40;2.90;;;;;;;4.02;100.00;100185.78;4959156;28;20200;-75
2024/01/07 01:21:03;;;;;;;5.70;3.30;;;;;;;4.01;100.00;100187.50;4965795;28;20717;-75
2024/01/07 01:23:30;;;;;;;5.53;3.13;;;;;;;4.04;100.00;100197.19;4964198;28;20703;-75
2024/01/07 01:25:56;;;;;;;6.40;3.23;;;;;;;4.01;100.00;100199.72;4963679;28;20670;-75
2024/01/07 01:28:22;;;;;;;4.50;2.80;;;;;;;4.04;100.00;100205.06;4964736;28;20345;-75
2024/01/07 01:30:49;;;;;;;4.23;2.90;;;;;;;4.08;100.00;100210.47;4964108;28;20240;-75
2024/01/07 01:33:15;;;;;;;7.50;3.10;;;;;;;4.00;100.00;100209.28;4961944;28;20221;-75
2024/01/07 01:35:43;;;;;;;4.70;2.70;;;;;;;4.05;100.00;100206.84;4962449;28;20210;-75
2024/01/07 01:38:09;;;;;;;6.13;3.57;;;;;;;3.96;100.00;100207.38;4963999;28;20196;-74
2024/01/07 01:40:36;;;;;;;7.60;3.20;;;;;;;4.01;100.00;100204.94;4963667;28;20315;-75
2024/01/07 01:43:02;;;;;;;7.93;3.63;;;;;;;4.00;100.00;100209.28;4959437;28;20479;-75
2024/01/07 01:45:29;;;;;;;5.90;3.73;;;;;;;4.08;100.00;100214.81;4963117;28;20655;-74
2024/01/07 01:47:56;;;;;;;6.90;3.30;;;;;;;4.09;100.00;100209.63;4962047;28;20229;-74
2024/01/07 01:50:25;;;;;;;6.60;3.20;;;;;;;4.05;100.00;100209.47;4966148;28;20225;-75
2024/01/07 01:52:51;;;;;;;7.90;3.90;;;;;;;4.06;100.00;100213.88;4962574;28;20211;-75
2024/01/07 01:55:19;;;;;;;4.97;2.90;;;;;;;4.05;100.00;100206.84;4962378;28;20220;-75
2024/01/07 01:57:47;;;;;;;6.37;3.10;;;;;;;3.97;100.00;100193.44;4960092;28;20654;-74
2024/01/07 02:00:13;;;;;;;10.00;3.40;;;;;;;4.08;100.00;100212.19;4963441;28;20739;-75
2024/01/07 02:02:40;;;;;;;6.93;3.13;;;;;;;4.08;100.00;100212.19;4961991;28;20217;-75
2024/01/07 02:05:06;;;;;;;6.03;2.97;;;;;;;4.13;100.00;100207.13;4959811;28;20210;-75
2024/01/07 02:07:33;;;;;;;6.27;3.37;;;;;;;4.15;100.00;100208.94;4960036;28;21229;-75
2024/01/07 02:10:00;;;;;;;4.97;3.13;;;;;;;4.16;100.00;100210.72;4963577;28;20252;-75
2024/01/07 02:12:26;;;;;;;5.80;3.20;;;;;;;4.17;100.00;100209.91;4962894;28;20213;-74
2024/01/07 02:14:53;;;;;;;5.30;3.00;;;;;;;4.17;100.00;100209.91;4960388;28;20213;-75
2024/01/07 02:17:20;;;;;;;6.33;2.97;;;;;;;4.17;100.00;100214.25;4960781;28;20272;-75
2024/01/07 02:19:46;;;;;;;5.80;3.10;;;;;;;4.15;100.00;100205.44;4960837;28;20218;-75
2024/01/07 02:22:13;;;;;;;7.47;3.80;;;;;;;4.14;100.00;100201.91;4960688;28;20761;-75
2024/01/07 02:24:39;;;;;;;4.53;2.77;;;;;;;4.13;100.00;100208.00;4962850;28;20740;-74
2024/01/07 02:27:06;;;;;;;7.10;3.17;;;;;;;4.14;100.00;100209.78;4957505;28;20224;-74
2024/01/07 02:29:32;;;;;;;3.60;3.00;;;;;;;4.17;100.00;100216.88;4960269;28;20231;-74
2024/01/07 02:31:58;;;;;;;6.73;3.13;;;;;;;4.20;100.00;100210.00;4964317;28;20215;-75
2024/01/07 02:34:25;;;;;;;4.33;2.80;;;;;;;4.18;100.00;100218.66;4963431;28;20256;-74
2024/01/07 02:36:51;;;;;;;5.43;3.00;;;;;;;4.16;100.00;100218.59;4962601;28;20651;-75
2024/01/07 02:39:18;;;;;;;4.90;2.77;;;;;;;4.14;100.00;100212.41;4962833;28;20225;-74
2024/01/07 02:41:45;;;;;;;4.13;2.57;;;;;;;4.14;100.00;100219.38;4960257;28;20217;-75
2024/01/07 02:44:12;;;;;;;5.53;2.60;;;;;;;4.13;100.00;100220.22;4961100;28;20208;-74
2024/01/07 02:46:39;;;;;;;4.30;2.70;;;;;;;4.14;100.00;100225.50;4963030;28;20240;-75
2024/01/07 02:49:05;;;;;;;4.60;2.50;;;;;;;4.12;100.00;100218.44;4963530;28;20223;-75
2024/01/07 02:51:32;;;;;;;5.40;3.03;;;;;;;4.14;100.00;100229.84;4961077;28;20205;-75
2024/01/07 02:53:58;;;;;;;5.23;2.80;;;;;;;4.15;100.00;100222.06;4961747;28;20209;-74
2024/01/07 02:56:25;;;;;;;6.23;3.03;;;;;;;4.14;100.00;100216.75;4962289;28;20242;-75
2024/01/07 02:58:51;;;;;;;10.37;2.97;;;;;;;4.11;100.00;100225.41;4959609;28;20235;-75
2024/01/07 03:01:18;;;;;;;3.47;2.60;;;;;;;4.11;100.00;100224.50;4956014;28;20213;-75
2024/01/07 03:03:44;;;;;;;4.47;2.67;;;;;;;4.16;100.00;100221.22;4961567;28;20202;-75
2024/01/07 03:06:11;;;;;;;5.17;3.00;;;;;;;4.16;100.00;100217.69;4961442;28;20206;-74
2024/01/07 03:08:37;;;;;;;4.80;3.10;;;;;;;4.14;100.00;100230.75;4960903;28;20201;-74
2024/01/07 03:11:05;;;;;;;6.13;2.70;;;;;;;4.11;100.00;100220.16;4960100;28;20692;-75
2024/01/07 03:13:33;;;;;;;5.30;3.10;;;;;;;4.08;100.00;100234.03;4960705;28;20277;-74
2024/01/07 03:15:59;;;;;;;5.17;2.80;;;;;;;4.03;100.00;100226.84;4960307;28;20205;-74
2024/01/07 03:18:29;;;;;;;6.17;2.87;;;;;;;4.04;100.00;100226.91;4961890;28;20754;-74
2024/01/07 03:20:56;;;;;;;3.73;1.83;;;;;;;4.08;100.00;100228.81;4960710;28;20200;-75
2024/01/07 03:23:23;;;;;;;4.33;2.70;;;;;;;4.07;100.00;100232.25;4961329;28;20260;-73
2024/01/07 03:25:49;;;;;;;3.93;2.40;;;;;;;4.04;100.00;100226.03;4961377;28;20290;-72
2024/01/07 03:28:16;;;;;;;4.80;2.33;;;;;;;4.05;100.00;100225.19;4960736;28;20303;-72
2024/01/07 03:30:42;;;;;;;5.17;2.30;;;;;;;4.03;100.00;100225.13;4960039;28;20239;-73
2024/01/07 03:33:09;;;;;;;2.73;1.90;;;;;;;4.04;100.00;100229.53;4956381;28;20489;-72
2024/01/07 03:35:36;;;;;;;4.63;2.60;;;;;;;4.04;100.00;100233.88;4961426;28;20632;-72
2024/01/07 03:38:03;;;;;;;4.73;2.47;;;;;;;4.01;100.00;100237.28;4959206;28;20220;-73
2024/01/07 03:40:29;;;;;;;7.33;2.20;;;;;;;4.01;100.00;100232.03;4960665;28;20295;-73
2024/01/07 03:42:55;;;;;;;6.53;2.60;;;;;;;3.98;100.00;100231.91;4962912;28;20210;-72
2024/01/07 03:45:22;;;;;;;6.90;2.83;;;;;;;3.98;100.00;100220.53;4961265;28;20205;-72
2024/01/07 03:47:49;;;;;;;4.03;2.47;;;;;;;3.99;100.00;100232.78;4960693;28;20256;-72
2024/01/07 03:50:18;;;;;;;5.00;2.53;;;;;;;3.92;100.00;100233.41;4960228;28;20223;-73
2024/01/07 03:52:44;;;;;;;3.17;1.93;;;;;;;3.90;100.00;100230.72;4960655;28;20218;-73
2024/01/07 03:55:11;;;;;;;4.77;2.00;;;;;;;3.86;100.00;100241.03;4961099;28;20197;-72
2024/01/07 03:57:37;;;;;;;5.07;2.50;;;;;;;3.83;100.00;100238.31;4960510;28;20204;-72
2024/01/07 04:00:04;;;;;;;4.10;2.30;;;;;;;3.86;100.00;100235.78;4957402;28;20319;-72
2024/01/07 04:02:31;;;;;;;6.33;2.63;;;;;;;3.88;100.00;100249.84;4961962;28;20197;-72
2024/01/07 04:04:58;;;;;;;4.40;2.60;;;;;;;3.87;100.00;100246.34;4958995;28;20194;-72
2024/01/07 04:07:24;;;;;;;4.43;2.30;;;;;;;3.87;100.00;100245.44;4962937;28;20222;-73
2024/01/07 04:09:50;;;;;;;3.90;2.40;;;;;;;3.83;100.00;100241.81;4961398;28;20573;-73
2024/01/07 04:12:17;;;;;;;3.20;1.97;;;;;;;3.82;100.00;100234.78;4966990;28;20228;-72
2024/01/07 04:14:43;;;;;;;4.20;2.03;;;;;;;3.80;100.00;100244.31;4956241;28;20210;-72
2024/01/07 04:17:10;;;;;;;6.37;2.83;;;;;;;3.82;100.00;100244.38;4958340;28;20203;-72
2024/01/07 04:19:38;;;;;;;4.77;2.33;;;;;;;3.82;100.00;100245.28;4959420;28;20308;-72
2024/01/07 04:22:04;;;;;;;4.37;2.53;;;;;;;3.82;100.00;100255.75;4959319;28;20667;-72
2024/01/07 04:24:31;;;;;;;4.83;2.60;;;;;;;3.82;100.00;100257.47;4960920;28;20585;-72
2024/01/07 04:26:58;;;;;;;5.00;2.33;;;;;;;3.79;100.00;100255.63;4962025;28;20961;-72
2024/01/07 04:29:24;;;;;;;5.80;2.47;;;;;;;3.81;100.00;100258.31;4960842;28;20315;-74
2024/01/07 04:31:50;;;;;;;5.60;2.73;;;;;;;3.80;100.00;100262.66;4959039;28;20227;-73
2024/01/07 04:34:17;;;;;;;4.07;2.40;;;;;;;3.82;100.00;100273.19;4957648;28;20262;-72
2024/01/07 04:36:44;;;;;;;5.40;2.40;;;;;;;3.86;100.00;100265.50;4956785;28;20203;-72
2024/01/07 04:39:10;;;;;;;6.53;2.20;;;;;;;3.85;100.00;100268.06;4956485;28;20254;-72
2024/01/07 04:41:37;;;;;;;6.83;2.47;;;;;;;3.85;100.00;100281.16;4961481;28;20577;-71
2024/01/07 04:44:03;;;;;;;4.00;2.37;;;;;;;3.84;100.00;100287.22;4963528;28;20205;-72
2024/01/07 04:46:34;;;;;;;4.50;2.03;;;;;;;3.85;100.00;100281.16;4964535;28;20218;-73
2024/01/07 04:49:00;;;;;;;3.20;2.10;;;;;;;3.90;100.00;100285.75;4963263;28;20225;-72
2024/01/07 04:51:27;;;;;;;4.77;2.43;;;;;;;3.92;100.00;100286.69;4963140;28;20202;-72
2024/01/07 04:53:53;;;;;;;5.03;2.63;;;;;;;3.90;100.00;100290.09;4962941;28;20203;-72
2024/01/07 04:56:20;;;;;;;3.70;2.03;;;;;;;3.93;100.00;100288.47;4963804;28;20307;-72
2024/01/07 04:58:46;;;;;;;4.50;2.90;;;;;;;3.94;100.00;100284.13;4965050;28;20223;-72
2024/01/07 05:01:13;;;;;;;4.80;2.63;;;;;;;3.93;100.00;100287.56;4963311;28;20210;-72
2024/01/07 05:03:39;;;;;;;3.27;1.83;;;;;;;3.93;100.00;100298.94;4962241;28;20686;-71
2024/01/07 05:06:09;;;;;;;4.33;2.23;;;;;;;3.91;100.00;100295.38;4960571;28;20699;-72
2024/01/07 05:08:41;;;;;;;3.50;2.30;;;;;;;3.89;100.00;100289.19;4962645;28;20729;-72
2024/01/07 05:11:08;;;;;;;4.47;2.30;;;;;;;3.88;100.00;100297.88;4959541;28;20203;-72
2024/01/07 05:13:35;;;;;;;3.77;2.20;;;;;;;3.90;100.00;100292.72;4963890;28;20309;-72
2024/01/07 05:16:03;;;;;;;4.33;2.40;;;;;;;3.91;100.00;100305.84;4964846;28;20667;-73
2024/01/07 05:18:30;;;;;;;2.83;1.80;;;;;;;3.92;100.00;100306.75;4961118;28;20704;-72
2024/01/07 05:20:56;;;;;;;4.57;2.53;;;;;;;3.90;100.00;100306.69;4962423;28;20333;-72
2024/01/07 05:23:23;;;;;;;3.33;2.10;;;;;;;3.93;100.00;100312.06;4963448;28;20196;-72
2024/01/07 05:25:49;;;;;;;3.53;1.80;;;;;;;3.92;100.00;100310.25;4960859;28;20234;-72
2024/01/07 05:28:19;;;;;;;2.97;2.03;;;;;;;3.86;100.00;100317.88;4963210;28;20224;-73
2024/01/07 05:30:46;;;;;;;4.40;1.80;;;;;;;3.85;100.00;100315.22;4960067;28;20225;-72
2024/01/07 05:33:12;;;;;;;3.37;1.93;;;;;;;3.82;100.00;100318.59;4961692;28;20198;-72
2024/01/07 05:35:39;;;;;;;2.30;1.43;;;;;;;3.85;100.00;100320.44;4960765;28;20285;-72
2024/01/07 05:38:05;;;;;;;3.40;1.67;;;;;;;3.87;100.00;100335.41;4963145;28;20193;-72
2024/01/07 05:40:32;;;;;;;3.00;1.80;;;;;;;3.86;100.00;100336.22;4963797;28;20221;-72
2024/01/07 05:42:58;;;;;;;2.73;1.47;;;;;;;3.87;100.00;100337.13;4962881;28;20488;-72
2024/01/07 05:45:24;;;;;;;3.63;1.80;;;;;;;3.86;100.00;100338.84;4963145;28;20197;-72
2024/01/07 05:47:51;;;;;;;3.00;1.60;;;;;;;3.88;100.00;100345.03;4960683;28;20217;-73
2024/01/07 05:50:19;;;;;;;3.33;1.67;;;;;;;3.92;100.00;100351.28;4962529;28;20223;-72
2024/01/07 05:52:45;;;;;;;3.03;1.70;;;;;;;3.93;100.00;100348.72;4962175;28;20208;-72
2024/01/07 05:55:12;;;;;;;3.70;1.70;;;;;;;3.94;100.00;100353.13;4962325;28;20668;-72
2024/01/07 05:57:38;;;;;;;3.03;1.70;;;;;;;3.95;100.00;100349.69;4960761;28;20208;-72
2024/01/07 06:00:05;;;;;;;2.20;1.57;;;;;;;4.02;100.00;100351.72;4962791;28;20230;-73
2024/01/07 06:02:31;;;;;;;3.03;1.93;;;;;;;4.03;100.00;100361.38;4962156;28;20217;-73
2024/01/07 06:04:58;;;;;;;2.77;1.70;;;;;;;4.06;100.00;100364.13;4962142;28;20297;-72
2024/01/07 06:07:24;;;;;;;3.40;1.73;;;;;;;4.06;100.00;100355.34;4961223;28;20279;-72
2024/01/07 06:09:51;;;;;;;3.60;2.10;;;;;;;4.08;100.00;100359.81;4960268;28;20224;-72
2024/01/07 06:12:17;;;;;;;3.33;1.87;;;;;;;4.04;100.00;100360.53;4961532;28;20206;-72
2024/01/07 06:14:44;;;;;;;3.37;1.70;;;;;;;4.03;100.00;100368.34;4961583;28;20223;-72
2024/01/07 06:17:10;;;;;;;4.07;2.03;;;;;;;4.01;100.00;100368.28;4960941;28;20264;-74
2024/01/07 06:19:37;;;;;;;3.00;2.00;;;;;;;3.98;100.00;100377.72;4959220;28;20230;-72
2024/01/07 06:22:03;;;;;;;4.20;2.13;;;;;;;3.97;100.00;100378.56;4963981;28;20264;-73
2024/01/07 06:24:30;;;;;;;3.97;2.30;;;;;;;3.96;100.00;100388.13;4959838;28;20201;-72
2024/01/07 06:26:56;;;;;;;4.20;2.33;;;;;;;3.98;100.00;100389.09;4962407;28;20208;-72
2024/01/07 06:29:23;;;;;;;6.10;2.70;;;;;;;3.95;100.00;100396.84;4961436;28;20308;-74
2024/01/07 06:31:49;;;;;;;4.87;2.67;;;;;;;3.94;100.00;100402.91;4960237;28;20201;-72
2024/01/07 06:34:16;;;;;;;7.27;2.77;;;;;;;3.94;100.00;100400.28;4960984;28;20205;-72
2024/01/07 06:36:42;;;;;;;6.07;2.90;;;;;;;3.99;100.00;100403.97;4963322;28;20298;-72
2024/01/07 06:39:09;;;;;;;6.93;3.13;;;;;;;3.99;100.00;100418.81;4962766;28;20223;-73
2024/01/07 06:41:36;;;;;;;5.97;3.37;;;;;;;4.03;100.00;100408.53;4963846;28;20225;-72
2024/01/07 06:44:03;;;;;;;5.63;3.17;;;;;;;4.08;100.00;100417.47;4958220;28;20209;-72
2024/01/07 06:46:30;;;;;;;7.30;3.20;;;;;;;4.11;100.00;100418.44;4969252;28;20252;-72
2024/01/07 06:48:56;;;;;;;9.07;3.57;;;;;;;4.05;100.00;100421.69;4962896;28;20677;-72
2024/01/07 06:51:23;;;;;;;6.33;3.73;;;;;;;4.09;100.00;100415.75;4963277;28;20228;-72
2024/01/07 06:53:50;;;;;;;7.70;3.50;;;;;;;4.08;100.00;100430.56;4961851;28;20300;-72
2024/01/07 06:56:16;;;;;;;8.43;3.40;;;;;;;4.09;100.00;100434.09;4956371;28;20390;-73
2024/01/07 06:58:43;;;;;;;7.80;3.70;;;;;;;4.08;100.00;100434.91;4964503;28;20199;-73
2024/01/07 07:01:10;;;;;;;7.37;3.47;;;;;;;4.06;100.00;100433.97;4962595;28;20206;-71
2024/01/07 07:03:36;;;;;;;7.87;4.00;;;;;;;4.02;100.00;100445.16;4960812;28;20250;-72
2024/01/07 07:06:03;;;;;;;7.30;3.90;;;;;;;3.96;100.00;100445.78;4955283;28;20249;-73
2024/01/07 07:08:29;;;;;;;6.27;3.50;;;;;;;3.91;100.00;100443.81;4959206;28;20765;-72
2024/01/07 07:10:56;;;;;;;6.90;3.90;;;;;;;3.91;100.00;100447.31;4962382;28;20225;-72
2024/01/07 07:13:22;;;;;;;6.83;4.23;;;;;;;3.91;100.00;100456.91;4964125;28;20206;-72
2024/01/07 07:15:48;;;;;;;6.57;3.77;;;;;;;3.87;100.00;100458.50;4959607;28;20207;-71
2024/01/07 07:18:15;;;;;;;8.93;4.20;;;;;;;3.91;100.00;100460.44;4956899;28;20201;-72
2024/01/07 07:20:41;;;;;;;9.13;4.13;;;;;;;3.92;100.00;100466.56;4960175;28;20236;-73
2024/01/07 07:23:08;;;;;;;6.57;4.17;;;;;;;3.95;100.00;100466.69;4963208;28;20246;-73
2024/01/07 07:25:34;;;;;;;7.57;4.10;;;;;;;4.00;100.00;100462.53;4962292;28;20205;-73
2024/01/07 07:28:01;;;;;;;6.97;3.97;;;;;;;4.06;100.00;100481.13;4957407;28;20313;-72
2024/01/07 07:30:27;;;;;;;7.13;3.77;;;;;;;3.97;100.00;100468.53;4957266;28;20269;-73
2024/01/07 07:32:54;;;;;;;9.17;4.43;;;;;;;4.05;100.00;100475.00;4960526;28;20237;-72
2024/01/07 07:35:20;;;;;;;8.27;4.30;;;;;;;4.05;100.00;100485.47;4960108;28;20201;-72
2024/01/07 07:37:47;;;;;;;8.30;4.43;;;;;;;4.08;100.00;100482.09;4957208;28;20203;-73
2024/01/07 07:40:13;;;;;;;8.63;4.10;;;;;;;4.03;100.00;100497.63;4952868;28;20224;-72
2024/01/07 07:42:40;;;;;;;6.60;3.80;;;;;;;3.98;100.00;100500.88;4958293;28;20618;-72
2024/01/07 07:45:06;;;;;;;8.93;3.70;;;;;;;3.94;100.00;100504.19;4960670;28;20229;-73
2024/01/07 07:47:33;;;;;;;8.83;3.87;;;;;;;3.90;100.00;100508.41;4956512;28;20201;-73
2024/01/07 07:50:00;;;;;;;6.40;3.53;;;;;;;3.88;100.00;100499.59;4958631;28;20300;-72
2024/01/07 07:52:28;;;;;;;6.53;4.10;;;;;;;3.86;100.00;100519.59;4957617;28;20196;-74
2024/01/07 07:54:54;;;;;;;6.97;3.50;;;;;;;3.87;100.00;100516.16;4958202;28;20208;-72
2024/01/07 07:57:21;;;;;;;5.50;3.13;;;;;;;3.88;100.00;100517.03;4957598;28;20235;-73
2024/01/07 07:59:48;;;;;;;5.47;3.30;;;;;;;3.97;100.00;100517.41;4961615;28;20238;-72
2024/01/07 08:02:15;;;;;;;5.33;3.10;;;;;;;4.01;100.00;100521.97;4956227;28;20264;-70
2024/01/07 08:04:41;;;;;;;4.50;2.97;;;;;;;4.01;100.00;100521.97;4953310;28;20348;-70
2024/01/07 08:07:08;;;;;;;4.60;2.70;;;;;;;3.99;100.00;100526.22;4955171;28;20689;-72
2024/01/07 08:09:39;;;;;;;4.30;2.80;;;;;;;3.99;100.00;100528.84;4960918;28;20307;-73
2024/01/07 08:12:06;;;;;;;5.00;2.70;;;;;;;4.00;100.00;100536.81;4959740;28;20244;-72
2024/01/07 08:14:33;;;;;;;7.07;3.00;;;;;;;4.03;100.00;100541.28;4958534;28;20283;-72
2024/01/07 08:16:59;;;;;;;5.23;2.80;;;;;;;4.03;100.00;100546.53;4958623;28;20202;-72
2024/01/07 08:19:25;;;;;;;5.63;3.00;;;;;;;4.07;100.00;100540.56;4958574;28;20229;-72
2024/01/07 08:21:52;;;;;;;4.77;2.73;;;;;;;4.12;100.00;100549.53;4960015;28;20216;-72
2024/01/07 08:24:19;;;;;;;4.77;2.83;;;;;;;4.08;100.00;100545.00;4956604;28;20537;-73
2024/01/07 08:26:45;;;;;;;5.17;3.00;;;;;;;4.11;100.00;100557.31;4959442;28;20244;-73
2024/01/07 08:29:12;;;;;;;6.20;3.60;;;;;;;4.12;100.00;100553.88;4958515;28;20309;-71
2024/01/07 08:31:39;;;;;;;8.67;4.07;;;;;;;4.18;100.00;100552.38;4960381;28;20657;-72
2024/01/07 08:34:08;;;;;;;6.10;3.80;;;;;;;4.17;100.00;100568.06;4955428;28;20677;-72
2024/01/07 08:36:35;;;;;;;5.10;3.10;;;;;;;4.22;100.00;100556.03;4962983;28;20215;-72
2024/01/07 08:39:01;;;;;;;8.47;4.60;;;;;;;4.25;100.00;100566.63;4955977;28;20217;-72
2024/01/07 08:41:27;;;;;;;6.83;4.00;;;;;;;4.29;100.00;100566.81;4957262;28;20278;-72
2024/01/07 08:43:54;;;;;;;15.67;7.17;;;;;;;4.32;100.00;100572.19;4957722;28;20204;-73
2024/01/07 08:46:21;;;;;;;7.77;4.03;;;;;;;4.28;100.00;100567.66;4960339;28;20289;-73
2024/01/07 08:48:47;;;;;;;5.97;3.13;;;;;;;4.33;100.00;100573.97;4958582;28;20218;-72
2024/01/07 08:51:14;;;;;;;4.90;3.20;;;;;;;4.34;100.00;100578.38;4953469;28;20739;-73
2024/01/07 08:53:40;;;;;;;13.00;5.77;;;;;;;4.40;100.00;100577.75;4958444;28;20292;-72
2024/01/07 08:56:07;;;;;;;6.43;3.60;;;;;;;4.40;100.00;100580.38;4965466;28;20210;-72
2024/01/07 08:58:33;;;;;;;7.87;4.17;;;;;;;4.48;100.00;100580.69;4957197;28;20285;-72
2024/01/07 09:01:00;;;;;;;7.70;3.57;;;;;;;4.49;100.00;100588.63;4955418;28;20209;-72
2024/01/07 09:03:28;;;;;;;5.73;2.93;;;;;;;4.47;100.00;100594.66;4957689;28;20203;-73
2024/01/07 09:05:55;;;;;;;8.20;3.93;;;;;;;4.50;100.00;100593.03;4956490;28;20225;-71
2024/01/07 09:08:21;;;;;;;10.13;4.57;;;;;;;4.53;100.00;100595.78;4959926;28;20218;-72
2024/01/07 09:10:48;;;;;;;8.00;3.57;;;;;;;4.61;100.00;100602.22;4961754;28;20222;-73
2024/01/07 09:13:14;;;;;;;6.03;3.57;;;;;;;4.59;100.00;100601.28;4960275;28;20227;-72
2024/01/07 09:15:40;;;;;;;6.67;4.40;;;;;;;4.72;100.00;100605.28;4961440;28;20229;-72
2024/01/07 09:18:07;;;;;;;6.40;2.90;;;;;;;4.74;100.00;100611.47;4954161;28;20217;-73
2024/01/07 09:20:34;;;;;;;9.17;4.73;;;;;;;4.76;100.00;100603.66;4955602;28;20218;-72
2024/01/07 09:23:00;;;;;;;8.53;4.20;;;;;;;4.84;100.00;100613.66;4954366;28;20278;-73
2024/01/07 09:25:27;;;;;;;6.60;4.13;;;;;;;4.79;100.00;100614.28;4956513;28;20245;-72
2024/01/07 09:27:53;;;;;;;9.93;4.07;;;;;;;4.76;100.00;100624.66;4956956;28;20662;-72
2024/01/07 09:30:20;;;;;;;8.23;4.27;;;;;;;4.65;100.00;100627.75;4958661;28;20225;-73
2024/01/07 09:32:46;;;;;;;9.97;4.33;;;;;;;4.69;100.00;100628.75;4955423;28;20684;-72
2024/01/07 09:35:13;;;;;;;9.13;5.20;;;;;;;4.64;100.00;100638.19;4965079;28;20221;-73
2024/01/07 09:37:39;;;;;;;8.60;4.20;;;;;;;4.58;100.00;100641.44;4961307;28;20301;-73
2024/01/07 09:40:06;;;;;;;8.53;4.83;;;;;;;4.55;100.00;100649.19;4961623;28;20649;-73
2024/01/07 09:42:33;;;;;;;10.37;4.80;;;;;;;4.49;100.00;100645.44;4961954;28;20217;-72
2024/01/07 09:45:03;;;;;;;9.33;4.77;;;;;;;4.45;100.00;100644.41;4956872;28;20202;-72
2024/01/07 09:47:30;;;;;;;8.20;4.87;;;;;;;4.54;100.00;100651.75;4959140;28;20194;-72
2024/01/07 09:49:56;;;;;;;11.40;5.57;;;;;;;4.46;100.00;100646.19;4964385;28;20678;-72
2024/01/07 09:52:24;;;;;;;10.27;4.80;;;;;;;4.40;100.00;100662.56;4964783;28;20206;-72
2024/01/07 09:54:58;;;;;;;12.73;5.83;;;;;;;4.40;100.00;100656.41;4959880;28;20237;-73
2024/01/07 09:57:25;;;;;;;10.60;5.10;;;;;;;4.42;100.00;100656.50;4954143;28;20582;-73
2024/01/07 09:59:52;;;;;;;11.90;4.43;;;;;;;4.38;100.00;100672.06;4958011;28;20221;-72
2024/01/07 10:02:18;;;;;;;11.57;4.83;;;;;;;4.49;100.00;100661.16;4969182;28;20221;-73
2024/01/07 10:04:47;;;;;;;8.17;4.33;;;;;;;4.41;100.00;100668.72;4960345;28;20208;-73
2024/01/07 10:07:14;;;;;;;9.93;4.53;;;;;;;4.44;100.00;100670.56;4964405;28;20245;-72
2024/01/07 10:09:44;;;;;;;8.67;4.53;;;;;;;4.45;100.00;100669.72;4964977;28;20651;-71
2024/01/07 10:12:12;;;;;;;8.30;4.23;;;;;;;4.40;100.00;100678.31;4968424;28;20232;-72
2024/01/07 10:14:41;;;;;;;9.87;4.00;;;;;;;4.40;100.00;100682.63;4965108;28;20198;-72
2024/01/07 10:17:17;;;;;;;9.93;4.73;;;;;;;4.28;100.00;100672.50;4958028;28;20202;-72
2024/01/07 10:19:48;;;;;;;9.47;4.10;;;;;;;4.34;100.00;100672.78;4962699;28;20248;-72
2024/01/07 10:22:15;;;;;;;8.77;4.70;;;;;;;4.33;100.00;100673.59;4959351;28;20253;-72
2024/01/07 10:24:45;;;;;;;7.60;4.00;;;;;;;4.32;100.00;100679.69;4959060;28;20224;-72
2024/01/07 10:27:13;;;;;;;6.83;3.70;;;;;;;4.23;100.00;100687.16;4962715;28;20226;-72
2024/01/07 10:29:39;;;;;;;7.17;3.83;;;;;;;4.19;100.00;100684.34;4960724;28;20292;-72
2024/01/07 10:32:06;;;;;;;8.57;4.13;;;;;;;4.08;100.00;100684.78;4962561;28;20202;-72
2024/01/07 10:34:34;;;;;;;8.23;4.07;;;;;;;4.04;100.00;100681.94;4961132;28;20196;-72
2024/01/07 10:37:04;;;;;;;9.87;4.20;;;;;;;4.00;100.00;100685.25;4957123;28;20198;-71
2024/01/07 10:39:31;;;;;;;7.30;3.73;;;;;;;3.99;100.00;100691.31;4962275;28;20240;-72
2024/01/07 10:41:58;;;;;;;7.13;3.23;;;;;;;3.93;100.00;100688.41;4963081;28;20252;-72
2024/01/07 10:44:30;;;;;;;6.23;3.40;;;;;;;3.95;100.00;100692.00;4962152;28;20208;-72
2024/01/07 10:46:58;;;;;;;8.67;4.50;;;;;;;3.99;100.00;100689.59;4962138;28;20200;-73
2024/01/07 10:49:26;;;;;;;9.53;3.97;;;;;;;3.98;100.00;100697.38;4959883;28;20240;-72
2024/01/07 10:52:05;;;;;;;8.80;4.23;;;;;;;3.99;100.00;100691.31;4956164;28;20204;-72
2024/01/07 10:54:33;;;;;;;8.70;4.20;;;;;;;3.99;100.00;100689.59;4959338;28;20234;-73
2024/01/07 10:57:18;;;;;;;10.80;4.53;;;;;;;3.96;100.00;100691.16;4968144;28;20236;-72
2024/01/07 10:59:46;;;;;;;8.03;4.07;;;;;;;3.93;100.00;100698.91;4959123;28;20705;-72
2024/01/07 11:02:13;;;;;;;6.60;3.97;;;;;;;3.92;100.00;100695.38;4958212;28;20205;-72
2024/01/07 11:05:00;;;;;;;8.03;4.17;;;;;;;3.95;100.00;100686.75;4957521;28;20198;-72
2024/01/07 11:07:43;;;;;;;6.20;3.43;;;;;;;3.95;100.00;100692.91;4954523;28;20285;-76
2024/01/07 11:10:37;;;;;;;6.03;3.03;;;;;;;4.06;100.00;100693.41;4969506;28;20235;-72
2024/01/07 11:13:34;;;;;;;7.47;3.20;;;;;;;4.04;100.00;100697.69;4959881;28;20202;-75
2024/01/07 11:16:05;;;;;;;7.53;3.43;;;;;;;4.05;100.00;100694.22;4957150;28;20616;-73
2024/01/07 11:18:33;;;;;;;8.87;4.03;;;;;;;4.05;100.00;100702.97;4954717;28;20618;-72
2024/01/07 11:21:01;;;;;;;6.87;4.10;;;;;;;4.09;100.00;100704.91;4958885;28;20213;-71
2024/01/07 11:23:30;;;;;;;8.50;4.63;;;;;;;4.05;100.00;100702.97;4959261;28;20576;-72